Time;durP1;ratioP1;P1;durP2;ratioP2;P2;SDS_P1;SDS_P2;PMS_P1;PMS_P2;Temp;Humidity;BMP_temperature;BMP_pressure;BME280_temperature;BME280_humidity;BME280_pressure;Samples;Min_cycle;Max_cycle;Signal;HPM_P1;HPM_P2
2021/03/12 00:01:14;;;;;;;8.17;3.17;;;22.50;99.90;;;;;;5041902;28;20384;-84
2021/03/12 00:03:41;;;;;;;8.13;2.78;;;22.50;99.90;;;;;;5032378;28;20392;-83
2021/03/12 00:06:10;;;;;;;5.65;3.03;;;22.50;99.90;;;;;;5045293;28;20391;-84
2021/03/12 00:08:40;;;;;;;6.13;2.60;;;22.50;99.90;;;;;;5050536;28;20392;-84
2021/03/12 00:11:08;;;;;;;7.60;2.80;;;22.40;99.90;;;;;;5053113;28;20801;-84
2021/03/12 00:13:36;;;;;;;7.45;2.72;;;22.30;99.90;;;;;;5061975;28;20393;-84
2021/03/12 00:16:04;;;;;;;6.83;2.90;;;22.40;99.90;;;;;;5058907;28;20386;-84
2021/03/12 00:18:45;;;;;;;4.68;2.60;;;22.60;99.90;;;;;;5051240;28;20405;-83
2021/03/12 00:21:14;;;;;;;5.43;2.33;;;22.60;99.90;;;;;;5059257;28;20409;-84
2021/03/12 00:23:41;;;;;;;9.05;2.30;;;22.70;99.90;;;;;;5051063;28;20387;-84
2021/03/12 00:26:09;;;;;;;6.18;2.38;;;22.90;99.90;;;;;;5047892;28;20407;-84
2021/03/12 00:28:37;;;;;;;7.32;2.70;;;22.90;99.90;;;;;;5050597;28;20387;-83
2021/03/12 00:31:05;;;;;;;6.35;2.60;;;23.10;99.90;;;;;;5049463;28;20424;-84
2021/03/12 00:33:32;;;;;;;3.47;2.10;;;23.20;99.90;;;;;;5050583;28;20413;-84
2021/03/12 00:36:00;;;;;;;4.53;2.28;;;23.30;99.90;;;;;;5062327;28;20382;-83
2021/03/12 00:38:27;;;;;;;4.25;2.38;;;23.10;99.90;;;;;;5081448;28;20442;-85
2021/03/12 00:41:00;;;;;;;5.60;2.40;;;23.10;99.90;;;;;;5091299;28;20818;-83
2021/03/12 00:43:28;;;;;;;5.00;2.93;;;23.10;99.90;;;;;;5081305;28;20390;-84
2021/03/12 00:46:01;;;;;;;4.20;2.60;;;23.00;99.90;;;;;;5071140;28;20378;-83
2021/03/12 00:48:28;;;;;;;6.00;2.80;;;23.10;99.90;;;;;;5070665;28;20374;-83
2021/03/12 00:50:56;;;;;;;4.97;2.70;;;23.30;99.90;;;;;;5070502;28;20386;-83
2021/03/12 00:53:23;;;;;;;5.22;2.30;;;23.50;99.90;;;;;;5070593;28;20453;-84
2021/03/12 00:55:50;;;;;;;3.65;2.05;;;23.60;99.90;;;;;;5070239;28;20435;-83
2021/03/12 00:58:19;;;;;;;5.47;2.17;;;23.90;99.90;;;;;;5069608;28;20406;-83
2021/03/12 01:00:47;;;;;;;3.92;2.28;;;24.30;99.90;;;;;;5073467;28;20398;-83
2021/03/12 01:03:14;;;;;;;6.28;2.40;;;24.30;99.90;;;;;;5070463;28;20382;-85
2021/03/12 01:05:42;;;;;;;3.25;2.30;;;24.10;99.90;;;;;;5071146;28;20390;-82
2021/03/12 01:08:11;;;;;;;4.97;2.58;;;24.00;99.90;;;;;;5070005;28;20405;-83
2021/03/12 01:10:41;;;;;;;5.65;2.28;;;23.70;99.90;;;;;;5073201;28;20876;-85
2021/03/12 01:13:08;;;;;;;5.68;2.42;;;23.70;99.90;;;;;;5069740;28;20374;-82
2021/03/12 01:15:36;;;;;;;6.53;2.47;;;23.70;99.90;;;;;;5070266;28;20359;-82
2021/03/12 01:18:04;;;;;;;6.15;2.20;;;23.70;99.90;;;;;;5070497;28;20477;-84
2021/03/12 01:20:35;;;;;;;3.53;1.95;;;23.60;99.90;;;;;;5070194;28;20385;-85
2021/03/12 01:23:03;;;;;;;2.75;1.98;;;23.60;99.90;;;;;;5081770;28;20379;-84
2021/03/12 01:25:42;;;;;;;4.27;2.10;;;23.90;99.90;;;;;;5083739;28;20386;-83
2021/03/12 01:28:10;;;;;;;3.85;2.10;;;24.20;99.90;;;;;;5073243;28;20382;-84
2021/03/12 01:30:40;;;;;;;4.90;2.28;;;24.60;99.90;;;;;;5070778;28;20390;-84
2021/03/12 01:33:07;;;;;;;3.93;2.10;;;25.10;99.90;;;;;;5070273;28;20421;-83
2021/03/12 01:35:35;;;;;;;4.60;2.22;;;25.30;99.90;;;;;;5068444;28;20904;-84
2021/03/12 01:38:04;;;;;;;4.20;2.13;;;25.10;99.90;;;;;;5067105;28;20412;-83
2021/03/12 01:40:32;;;;;;;4.35;2.20;;;24.90;99.90;;;;;;5070030;28;20382;-84
2021/03/12 01:43:01;;;;;;;6.75;2.40;;;24.70;99.90;;;;;;5070701;28;20425;-83
2021/03/12 01:45:46;;;;;;;5.70;2.10;;;24.40;99.90;;;;;;5074943;28;20412;-84
2021/03/12 01:48:16;;;;;;;6.40;2.50;;;24.10;99.90;;;;;;5070126;28;20435;-84
2021/03/12 01:50:57;;;;;;;6.07;2.27;;;24.00;99.90;;;;;;5069036;28;20451;-84
2021/03/12 01:53:25;;;;;;;3.70;2.20;;;23.90;99.90;;;;;;5069342;28;20856;-83
2021/03/12 01:55:52;;;;;;;2.70;1.98;;;23.80;99.90;;;;;;5069150;28;20469;-84
2021/03/12 01:58:21;;;;;;;4.55;2.20;;;23.70;99.90;;;;;;5068990;28;20920;-84
2021/03/12 02:00:49;;;;;;;5.30;2.15;;;23.60;99.90;;;;;;5069429;28;20374;-84
2021/03/12 02:03:20;;;;;;;5.30;2.40;;;23.80;99.90;;;;;;5069355;28;20393;-84
2021/03/12 02:05:47;;;;;;;3.97;2.20;;;23.90;99.90;;;;;;5068258;28;20431;-84
2021/03/12 02:08:15;;;;;;;3.10;2.33;;;24.00;99.90;;;;;;5069137;28;20397;-84
2021/03/12 02:10:42;;;;;;;2.80;2.03;;;24.20;99.90;;;;;;5069027;28;20393;-84
2021/03/12 02:13:15;;;;;;;4.60;2.22;;;24.50;99.90;;;;;;5069465;28;20378;-83
2021/03/12 02:15:48;;;;;;;5.90;2.33;;;25.00;99.90;;;;;;5067610;28;20385;-84
2021/03/12 02:18:34;;;;;;;4.25;2.08;;;25.40;99.90;;;;;;5068744;28;20409;-84
2021/03/12 02:21:25;;;;;;;4.93;2.13;;;25.70;99.90;;;;;;5070370;28;20386;-83
2021/03/12 02:23:52;;;;;;;4.93;2.00;;;26.10;99.90;;;;;;5083772;28;20764;-83
2021/03/12 02:26:44;;;;;;;4.35;1.90;;;26.40;99.90;;;;;;5076849;28;20772;-86
2021/03/12 02:29:48;;;;;;;;;;;;;;;;;;;;;
2021/03/12 02:32:19;;;;;;;4.00;2.20;;;25.70;99.90;;;;;;5082232;28;20403;-83
2021/03/12 02:34:48;;;;;;;3.13;2.03;;;25.50;99.90;;;;;;5069423;28;20747;-84
2021/03/12 02:37:18;;;;;;;6.03;2.25;;;25.50;99.90;;;;;;5080904;28;20487;-83
2021/03/12 02:39:52;;;;;;;2.40;2.20;;;25.40;99.90;;;;;;5082587;28;20411;-84
2021/03/12 02:42:21;;;;;;;4.45;2.08;;;25.40;99.90;;;;;;5065047;28;20749;-84
2021/03/12 02:44:52;;;;;;;3.13;2.17;;;25.40;99.90;;;;;;5066139;28;20386;-83
2021/03/12 02:47:29;;;;;;;2.65;1.95;;;25.40;99.90;;;;;;5070074;28;20471;-84
2021/03/12 02:49:57;;;;;;;3.15;2.08;;;25.40;99.90;;;;;;5082301;28;20388;-84
2021/03/12 02:52:25;;;;;;;6.88;2.20;;;25.50;99.90;;;;;;5080333;28;20445;-84
2021/03/12 02:54:53;;;;;;;2.35;2.03;;;25.30;99.90;;;;;;5075923;28;20400;-84
2021/03/12 02:57:24;;;;;;;5.88;2.58;;;25.30;99.90;;;;;;5071334;28;20406;-84
2021/03/12 02:59:54;;;;;;;4.40;2.10;;;25.50;99.90;;;;;;5076817;28;20499;-84
2021/03/12 03:02:24;;;;;;;2.70;1.77;;;25.60;99.90;;;;;;5074637;28;20394;-84
2021/03/12 03:04:52;;;;;;;4.35;2.17;;;25.60;99.90;;;;;;5068926;28;20774;-83
2021/03/12 03:07:20;;;;;;;3.13;1.85;;;25.60;99.90;;;;;;5068114;28;20811;-85
2021/03/12 03:09:49;;;;;;;3.28;2.25;;;25.50;99.90;;;;;;5069477;28;20411;-84
2021/03/12 03:12:19;;;;;;;7.00;2.03;;;25.40;99.90;;;;;;5071878;28;20404;-84
2021/03/12 03:14:49;;;;;;;2.85;2.00;;;25.40;99.90;;;;;;5075730;28;20718;-85
2021/03/12 03:17:18;;;;;;;3.88;2.05;;;25.40;99.90;;;;;;5067359;28;20398;-84
2021/03/12 03:19:49;;;;;;;4.23;2.13;;;25.50;99.90;;;;;;5069609;28;20873;-84
2021/03/12 03:22:20;;;;;;;4.20;1.92;;;25.70;99.90;;;;;;5077317;28;20687;-85
2021/03/12 03:24:48;;;;;;;5.10;2.10;;;25.70;99.90;;;;;;5078906;28;20393;-85
2021/03/12 03:27:16;;;;;;;2.95;2.08;;;25.70;99.90;;;;;;5086413;28;20385;-84
2021/03/12 03:29:46;;;;;;;3.08;1.85;;;25.50;99.90;;;;;;5069411;28;20917;-84
2021/03/12 03:32:14;;;;;;;2.30;1.70;;;25.40;99.90;;;;;;5071542;28;20382;-83
2021/03/12 03:34:42;;;;;;;3.03;2.17;;;25.30;99.90;;;;;;5071428;28;20502;-84
2021/03/12 03:37:10;;;;;;;3.88;2.10;;;25.30;99.90;;;;;;5070253;28;20500;-83
2021/03/12 03:39:39;;;;;;;3.30;1.95;;;25.20;99.90;;;;;;5075416;28;20412;-83
2021/03/12 03:42:09;;;;;;;2.72;2.00;;;25.10;99.90;;;;;;5072771;28;20417;-83
2021/03/12 03:44:37;;;;;;;4.35;2.30;;;25.10;99.90;;;;;;5073799;28;20394;-84
2021/03/12 03:47:07;;;;;;;3.20;2.03;;;24.90;99.90;;;;;;5071551;28;20373;-84
2021/03/12 03:49:37;;;;;;;3.92;2.05;;;24.80;99.90;;;;;;5071867;28;20396;-84
2021/03/12 03:52:05;;;;;;;4.15;2.13;;;24.90;99.90;;;;;;5071607;28;20366;-84
2021/03/12 03:54:33;;;;;;;5.55;2.50;;;24.90;99.90;;;;;;5071069;28;20393;-84
2021/03/12 03:57:02;;;;;;;3.45;2.13;;;25.00;99.90;;;;;;5070291;28;20472;-84
2021/03/12 03:59:31;;;;;;;3.80;1.90;;;25.00;99.90;;;;;;5073355;28;20392;-85
2021/03/12 04:01:59;;;;;;;3.75;2.30;;;25.00;99.90;;;;;;5074805;28;20398;-85
2021/03/12 04:04:26;;;;;;;3.40;2.17;;;25.00;99.90;;;;;;5068351;28;20413;-85
2021/03/12 04:06:54;;;;;;;6.50;2.30;;;25.00;99.90;;;;;;5070846;28;20378;-84
2021/03/12 04:09:21;;;;;;;3.33;2.13;;;25.10;99.90;;;;;;5070298;28;21036;-83
2021/03/12 04:11:49;;;;;;;3.57;2.10;;;25.10;99.90;;;;;;5064033;28;21264;-83
2021/03/12 04:14:17;;;;;;;2.95;2.00;;;25.00;99.90;;;;;;5068411;28;20389;-84
2021/03/12 04:16:45;;;;;;;4.57;1.90;;;24.90;99.90;;;;;;5070972;28;20427;-83
2021/03/12 04:19:12;;;;;;;3.83;2.20;;;25.10;99.90;;;;;;5070806;28;20880;-83
2021/03/12 04:21:42;;;;;;;3.33;2.00;;;25.30;99.90;;;;;;5070982;28;20386;-81
2021/03/12 04:24:10;;;;;;;4.47;1.88;;;25.60;99.90;;;;;;5070850;28;20390;-84
2021/03/12 04:26:38;;;;;;;2.58;2.08;;;25.60;99.90;;;;;;5070678;28;20392;-83
2021/03/12 04:29:08;;;;;;;2.05;1.80;;;25.50;99.90;;;;;;5052564;28;20375;-83
2021/03/12 04:31:35;;;;;;;4.13;1.80;;;25.30;99.90;;;;;;5060272;28;20432;-81
2021/03/12 04:34:02;;;;;;;4.60;2.10;;;25.30;99.90;;;;;;5070822;28;20464;-85
2021/03/12 04:36:30;;;;;;;5.43;2.27;;;25.20;99.90;;;;;;5071746;28;20405;-84
2021/03/12 04:38:57;;;;;;;2.30;1.90;;;25.20;99.90;;;;;;5069672;28;20430;-85
2021/03/12 04:41:24;;;;;;;2.90;1.85;;;25.30;99.90;;;;;;5073855;28;20397;-84
2021/03/12 04:43:52;;;;;;;3.03;1.80;;;25.40;99.90;;;;;;5072942;28;20384;-85
2021/03/12 04:46:19;;;;;;;2.80;2.00;;;25.40;99.90;;;;;;5072013;28;20449;-83
2021/03/12 04:48:47;;;;;;;1.60;1.33;;;25.30;99.90;;;;;;5072028;28;22009;-83
2021/03/12 04:51:14;;;;;;;4.88;1.80;;;25.20;99.90;;;;;;5073073;28;20722;-84
2021/03/12 04:53:42;;;;;;;2.70;1.92;;;25.10;99.90;;;;;;5073305;28;20398;-85
2021/03/12 04:56:10;;;;;;;3.55;1.88;;;25.00;99.90;;;;;;5071827;28;20392;-84
2021/03/12 04:58:39;;;;;;;2.38;1.80;;;24.90;99.90;;;;;;5075222;28;20531;-84
2021/03/12 05:01:10;;;;;;;3.53;2.00;;;24.80;99.90;;;;;;5071794;27;20378;-83
2021/03/12 05:03:40;;;;;;;3.10;1.90;;;24.80;99.90;;;;;;5070284;28;20798;-82
2021/03/12 05:06:09;;;;;;;2.45;1.60;;;24.70;99.90;;;;;;5070458;28;20935;-83
2021/03/12 05:08:38;;;;;;;1.73;1.40;;;24.70;99.90;;;;;;5076207;28;20393;-84
2021/03/12 05:11:09;;;;;;;3.58;1.58;;;24.70;99.90;;;;;;5070416;28;20432;-83
2021/03/12 05:13:37;;;;;;;2.08;1.30;;;24.70;99.90;;;;;;5069225;28;20872;-83
2021/03/12 05:16:05;;;;;;;2.40;1.27;;;24.70;99.90;;;;;;5070216;28;20909;-83
2021/03/12 05:18:32;;;;;;;1.40;1.10;;;24.70;99.90;;;;;;5050288;28;20400;-84
2021/03/12 05:20:59;;;;;;;1.67;1.30;;;24.70;99.90;;;;;;5056141;28;20382;-84
2021/03/12 05:23:26;;;;;;;1.67;1.50;;;24.70;99.90;;;;;;5070433;28;20540;-83
2021/03/12 05:25:53;;;;;;;1.95;1.55;;;24.90;99.90;;;;;;5070904;28;20378;-83
2021/03/12 05:28:20;;;;;;;3.53;1.60;;;25.10;99.90;;;;;;5070436;28;20773;-83
2021/03/12 05:30:47;;;;;;;2.35;1.50;;;25.20;99.90;;;;;;5070292;28;20370;-82
2021/03/12 05:33:14;;;;;;;1.93;1.40;;;25.30;99.90;;;;;;5069984;28;20765;-83
2021/03/12 05:35:41;;;;;;;1.70;1.30;;;25.30;99.90;;;;;;5065475;28;20404;-83
2021/03/12 05:38:08;;;;;;;3.25;1.30;;;25.30;99.90;;;;;;5050464;28;20530;-82
2021/03/12 05:40:35;;;;;;;2.50;1.60;;;25.30;99.90;;;;;;5050378;28;20866;-82
2021/03/12 05:43:03;;;;;;;2.78;1.52;;;25.40;99.90;;;;;;5056322;28;20400;-82
2021/03/12 05:45:30;;;;;;;2.22;1.40;;;25.30;99.90;;;;;;5051918;28;20380;-83
2021/03/12 05:47:57;;;;;;;1.55;1.30;;;25.40;99.90;;;;;;5062824;28;20382;-83
2021/03/12 05:50:25;;;;;;;3.33;1.58;;;25.40;99.90;;;;;;5070085;28;20461;-82
2021/03/12 05:52:53;;;;;;;1.52;1.42;;;25.40;99.90;;;;;;5069822;28;20467;-83
2021/03/12 05:55:20;;;;;;;1.70;1.60;;;25.20;99.90;;;;;;5067866;28;20400;-83
2021/03/12 05:57:48;;;;;;;3.08;1.50;;;25.20;99.90;;;;;;5063322;28;20388;-83
2021/03/12 06:00:16;;;;;;;2.22;1.60;;;25.10;99.90;;;;;;5053152;28;20470;-83
2021/03/12 06:02:44;;;;;;;2.30;1.55;;;25.10;99.90;;;;;;5049764;28;20364;-82
2021/03/12 06:05:11;;;;;;;2.45;1.52;;;25.10;99.90;;;;;;5065984;28;20400;-83
2021/03/12 06:07:39;;;;;;;2.80;2.08;;;25.10;99.90;;;;;;5060030;28;20397;-84
2021/03/12 06:10:08;;;;;;;2.47;1.80;;;25.10;99.90;;;;;;5036693;28;20388;-82
2021/03/12 06:12:36;;;;;;;4.63;1.70;;;25.10;99.90;;;;;;5069710;28;20377;-82
2021/03/12 06:15:07;;;;;;;5.10;1.90;;;25.20;99.90;;;;;;5076465;28;20766;-83
2021/03/12 06:17:47;;;;;;;2.45;1.63;;;25.20;99.90;;;;;;5048726;28;20400;-81
2021/03/12 06:20:18;;;;;;;3.25;2.00;;;25.20;99.90;;;;;;5049948;28;20417;-83
2021/03/12 06:23:03;;;;;;;4.03;1.92;;;25.30;99.90;;;;;;5047660;28;20422;-84
2021/03/12 06:25:30;;;;;;;2.25;1.30;;;25.10;99.90;;;;;;5051921;28;20793;-84
2021/03/12 06:28:14;;;;;;;2.90;1.70;;;24.90;99.90;;;;;;5047733;28;20466;-83
2021/03/12 06:30:41;;;;;;;4.00;1.80;;;24.90;99.90;;;;;;5052208;28;20469;-83
2021/03/12 06:33:08;;;;;;;4.60;1.97;;;24.80;99.90;;;;;;5033300;28;20406;-86
2021/03/12 06:35:39;;;;;;;2.50;1.80;;;24.80;99.90;;;;;;5051954;28;20390;-86
2021/03/12 06:38:10;;;;;;;3.22;2.00;;;24.80;99.90;;;;;;5075604;28;20409;-84
2021/03/12 06:40:40;;;;;;;3.27;1.97;;;24.90;99.90;;;;;;5058514;28;20889;-83
2021/03/12 06:43:12;;;;;;;4.78;2.05;;;25.00;99.90;;;;;;5069225;28;20453;-82
2021/03/12 06:45:42;;;;;;;4.05;1.92;;;25.10;99.90;;;;;;5070948;28;20388;-83
2021/03/12 06:48:31;;;;;;;3.10;2.00;;;24.90;99.90;;;;;;5068534;28;20443;-85
2021/03/12 06:51:00;;;;;;;6.25;2.00;;;24.80;99.90;;;;;;5069187;28;20497;-83
2021/03/12 06:53:38;;;;;;;5.43;2.20;;;24.70;99.90;;;;;;5067156;28;20448;-83
2021/03/12 06:56:11;;;;;;;3.95;2.10;;;24.70;99.90;;;;;;5070117;28;20402;-84
2021/03/12 06:58:38;;;;;;;4.80;2.03;;;24.60;99.90;;;;;;5067592;28;20415;-85
2021/03/12 07:01:21;;;;;;;5.00;2.60;;;24.60;99.90;;;;;;5083399;28;20463;-84
2021/03/12 07:04:09;;;;;;;5.72;2.55;;;24.60;99.90;;;;;;5079374;28;20399;-84
2021/03/12 07:06:47;;;;;;;7.70;2.42;;;24.50;99.90;;;;;;5067168;28;20384;-83
2021/03/12 07:09:14;;;;;;;6.72;2.83;;;24.50;99.90;;;;;;5076066;28;20392;-84
2021/03/12 07:11:41;;;;;;;5.80;2.35;;;24.40;99.90;;;;;;5069524;28;20903;-84
2021/03/12 07:14:09;;;;;;;7.38;2.90;;;24.30;99.90;;;;;;5068471;28;20382;-83
2021/03/12 07:16:36;;;;;;;8.18;2.80;;;24.30;99.90;;;;;;5068485;28;20398;-84
2021/03/12 07:19:03;;;;;;;6.10;2.53;;;24.30;99.90;;;;;;5088579;28;20922;-84
2021/03/12 07:21:31;;;;;;;8.63;2.90;;;24.20;99.90;;;;;;5061848;28;20388;-84
2021/03/12 07:24:03;;;;;;;9.20;3.10;;;24.10;99.90;;;;;;5064656;28;20488;-85
2021/03/12 07:27:10;;;;;;;7.22;2.70;;;24.10;99.90;;;;;;5068803;28;20374;-83
2021/03/12 07:29:38;;;;;;;5.28;2.33;;;24.00;99.90;;;;;;5026416;28;20392;-84
2021/03/12 07:32:06;;;;;;;5.80;2.35;;;24.00;99.90;;;;;;5026477;28;20389;-84
2021/03/12 07:34:39;;;;;;;8.40;2.67;;;24.00;99.90;;;;;;5047824;28;20386;-84
2021/03/12 07:37:09;;;;;;;8.95;2.95;;;23.90;99.90;;;;;;5068661;28;20394;-84
2021/03/12 07:39:44;;;;;;;10.23;2.72;;;23.80;99.90;;;;;;5068553;28;20389;-84
2021/03/12 07:42:17;;;;;;;9.47;2.90;;;23.70;99.90;;;;;;5068240;28;20460;-84
2021/03/12 07:44:51;;;;;;;9.07;2.92;;;23.60;99.90;;;;;;5067765;28;20753;-84
2021/03/12 07:47:26;;;;;;;9.95;3.28;;;23.50;99.90;;;;;;5068372;28;20880;-85
2021/03/12 07:49:54;;;;;;;10.00;3.07;;;23.50;99.90;;;;;;5068455;28;20395;-85
2021/03/12 07:52:48;;;;;;;11.00;3.13;;;23.40;99.90;;;;;;5063134;28;20846;-84
2021/03/12 07:55:35;;;;;;;12.70;3.08;;;23.40;99.90;;;;;;5066980;28;20497;-85
2021/03/12 07:58:06;;;;;;;8.35;2.95;;;23.40;99.90;;;;;;5069656;28;20394;-83
2021/03/12 08:00:57;;;;;;;8.95;3.03;;;23.30;99.90;;;;;;5055064;28;20501;-83
2021/03/12 08:03:36;;;;;;;10.57;3.15;;;23.20;99.90;;;;;;5069187;28;20953;-84
2021/03/12 08:06:23;;;;;;;9.48;2.95;;;23.10;99.90;;;;;;5069525;28;20399;-82
2021/03/12 08:08:50;;;;;;;11.50;3.20;;;23.10;99.90;;;;;;5080027;28;20487;-84
2021/03/12 08:11:38;;;;;;;11.90;3.33;;;23.10;99.90;;;;;;5063746;28;20804;-83
2021/03/12 08:14:18;;;;;;;8.07;2.80;;;23.10;99.90;;;;;;5085762;28;20476;-83
2021/03/12 08:17:02;;;;;;;10.90;3.00;;;23.10;99.90;;;;;;5085577;28;20886;-83
2021/03/12 08:19:39;;;;;;;12.35;3.05;;;23.10;99.90;;;;;;5090540;28;20398;-82
2021/03/12 08:22:29;;;;;;;13.90;3.05;;;23.10;99.90;;;;;;5085186;28;20962;-83
2021/03/12 08:24:58;;;;;;;11.87;2.87;;;23.00;99.90;;;;;;5090302;28;20411;-82
2021/03/12 08:27:48;;;;;;;9.38;2.47;;;23.00;99.90;;;;;;5086177;28;20406;-83
2021/03/12 08:30:38;;;;;;;10.77;3.25;;;22.90;99.90;;;;;;5090686;28;20411;-82
2021/03/12 08:33:07;;;;;;;12.07;3.00;;;22.90;99.90;;;;;;5070232;28;20483;-82
2021/03/12 08:35:39;;;;;;;9.05;2.78;;;22.80;99.90;;;;;;5071661;28;20406;-83
2021/03/12 08:38:26;;;;;;;13.30;2.85;;;22.80;99.90;;;;;;5078753;28;20406;-82
2021/03/12 08:40:59;;;;;;;11.00;3.33;;;22.80;99.90;;;;;;5051058;28;20380;-83
2021/03/12 08:43:28;;;;;;;12.33;3.10;;;22.80;99.90;;;;;;5064971;28;20473;-83
2021/03/12 08:46:10;;;;;;;13.23;2.80;;;22.70;99.90;;;;;;5071542;28;20506;-83
2021/03/12 08:48:38;;;;;;;11.75;2.63;;;22.70;99.90;;;;;;5069959;28;21542;-83
2021/03/12 08:51:18;;;;;;;12.52;3.10;;;22.70;99.90;;;;;;5070904;28;20386;-84
2021/03/12 08:53:48;;;;;;;10.88;2.70;;;22.70;99.90;;;;;;5070284;28;20397;-83
2021/03/12 08:56:22;;;;;;;11.97;2.60;;;22.60;99.90;;;;;;5073757;28;20888;-82
2021/03/12 08:58:50;;;;;;;9.40;2.58;;;22.60;99.90;;;;;;5070660;28;20410;-83
2021/03/12 09:01:19;;;;;;;7.33;2.50;;;22.60;99.90;;;;;;5070924;28;20374;-81
2021/03/12 09:03:50;;;;;;;10.57;2.67;;;22.60;99.90;;;;;;5071027;28;20422;-82
2021/03/12 09:06:19;;;;;;;8.00;2.55;;;22.60;99.90;;;;;;5071837;28;20789;-83
2021/03/12 09:08:47;;;;;;;11.95;2.92;;;22.60;99.90;;;;;;5070281;28;20397;-82
2021/03/12 09:11:25;;;;;;;8.27;2.42;;;22.60;99.90;;;;;;5079751;28;20378;-82
2021/03/12 09:13:53;;;;;;;7.57;2.60;;;22.60;99.90;;;;;;5071919;28;20386;-82
2021/03/12 09:16:26;;;;;;;10.50;2.95;;;22.50;99.90;;;;;;5070213;28;20409;-83
2021/03/12 09:18:55;;;;;;;11.60;2.50;;;22.50;99.90;;;;;;5068716;28;20908;-83
2021/03/12 09:21:24;;;;;;;9.57;2.53;;;22.50;99.90;;;;;;5070487;28;20366;-82
2021/03/12 09:23:53;;;;;;;12.35;3.08;;;22.40;99.90;;;;;;5069057;28;20762;-82
2021/03/12 09:26:23;;;;;;;7.75;2.42;;;22.40;99.90;;;;;;5070399;28;20533;-83
2021/03/12 09:28:52;;;;;;;10.25;2.95;;;22.30;99.90;;;;;;5070167;28;20737;-82
2021/03/12 09:31:25;;;;;;;9.67;2.40;;;22.30;99.90;;;;;;5083800;28;20379;-82
2021/03/12 09:33:53;;;;;;;10.07;2.55;;;22.30;99.90;;;;;;5090184;28;20442;-82
2021/03/12 09:36:46;;;;;;;12.00;2.97;;;22.20;99.90;;;;;;5081716;28;20479;-83
2021/03/12 09:39:13;;;;;;;13.60;2.92;;;22.20;99.90;;;;;;5067073;28;20406;-83
2021/03/12 09:41:42;;;;;;;8.75;2.80;;;22.10;99.90;;;;;;5068920;28;20460;-83
2021/03/12 09:44:16;;;;;;;13.10;3.35;;;22.10;99.90;;;;;;5069231;28;20439;-82
2021/03/12 09:46:45;;;;;;;12.10;2.78;;;22.10;99.90;;;;;;5069184;28;20868;-82
2021/03/12 09:49:16;;;;;;;12.00;2.73;;;22.10;99.90;;;;;;5058317;28;20895;-82
2021/03/12 09:51:46;;;;;;;13.57;3.20;;;22.10;99.90;;;;;;5069589;28;20481;-82
2021/03/12 09:54:16;;;;;;;10.30;3.38;;;22.10;99.90;;;;;;5068738;28;20382;-82
2021/03/12 09:56:48;;;;;;;9.85;2.95;;;22.00;99.90;;;;;;5068959;28;20385;-82
2021/03/12 09:59:19;;;;;;;10.35;3.28;;;22.00;99.90;;;;;;5070582;28;20413;-81
2021/03/12 10:01:48;;;;;;;12.80;3.03;;;22.00;99.90;;;;;;5069402;28;20373;-83
2021/03/12 10:04:36;;;;;;;13.38;3.25;;;22.00;99.90;;;;;;5069373;28;20386;-82
2021/03/12 10:07:06;;;;;;;15.07;3.35;;;22.00;99.90;;;;;;5068551;28;20385;-82
2021/03/12 10:09:34;;;;;;;12.07;3.20;;;22.00;99.90;;;;;;5069927;28;20474;-82
2021/03/12 10:12:03;;;;;;;12.30;3.28;;;22.00;99.90;;;;;;5072108;28;20829;-82
2021/03/12 10:14:42;;;;;;;17.45;3.50;;;22.00;99.90;;;;;;5070309;28;20385;-82
2021/03/12 10:17:22;;;;;;;11.55;3.00;;;22.00;99.90;;;;;;5075303;28;20868;-83
2021/03/12 10:19:58;;;;;;;16.30;3.38;;;22.00;99.90;;;;;;5081389;28;20406;-83
2021/03/12 10:22:44;;;;;;;13.98;4.80;;;22.00;99.90;;;;;;5073914;28;20471;-82
2021/03/12 10:25:19;;;;;;;17.95;7.13;;;22.00;99.90;;;;;;5065003;28;20392;-83
2021/03/12 10:27:49;;;;;;;12.80;4.50;;;22.00;99.90;;;;;;5066289;28;20920;-82
2021/03/12 10:30:38;;;;;;;17.15;4.60;;;22.00;99.90;;;;;;5066368;28;20396;-83
2021/03/12 10:33:10;;;;;;;14.60;3.70;;;22.00;99.90;;;;;;5073015;28;20937;-83
2021/03/12 10:35:43;;;;;;;14.23;3.87;;;22.00;99.90;;;;;;5062969;28;20401;-81
2021/03/12 10:38:23;;;;;;;16.67;4.13;;;22.00;99.90;;;;;;5058633;28;20402;-82
2021/03/12 10:40:54;;;;;;;12.50;4.60;;;22.00;99.90;;;;;;5063662;28;20761;-84
2021/03/12 10:43:21;;;;;;;17.35;4.55;;;22.00;99.90;;;;;;5064027;28;20394;-82
2021/03/12 10:45:53;;;;;;;13.75;4.28;;;22.00;99.90;;;;;;5075251;28;20480;-82
2021/03/12 10:48:26;;;;;;;16.83;4.80;;;22.00;99.90;;;;;;5065827;28;20910;-82
2021/03/12 10:50:54;;;;;;;14.05;5.30;;;22.10;99.90;;;;;;5065811;28;20449;-82
2021/03/12 10:53:21;;;;;;;16.50;5.18;;;22.00;99.90;;;;;;5065347;28;20475;-82
2021/03/12 10:55:51;;;;;;;13.30;5.03;;;22.00;99.90;;;;;;5066297;28;20390;-83
2021/03/12 10:58:38;;;;;;;12.82;5.53;;;22.00;99.90;;;;;;5070697;28;20409;-83
2021/03/12 11:01:36;;;;;;;13.40;5.30;;;22.00;99.90;;;;;;5069826;28;20398;-82
2021/03/12 11:04:14;;;;;;;15.18;4.80;;;22.00;99.90;;;;;;5067311;28;20450;-83
2021/03/12 11:06:42;;;;;;;17.83;5.45;;;22.00;99.90;;;;;;5069269;28;20837;-84
2021/03/12 11:09:10;;;;;;;13.55;5.15;;;22.00;99.90;;;;;;5067987;28;20417;-82
2021/03/12 11:11:38;;;;;;;9.60;5.00;;;22.00;99.90;;;;;;5071762;28;20390;-83
2021/03/12 11:14:05;;;;;;;13.77;4.93;;;22.00;99.90;;;;;;5071055;28;20390;-82
2021/03/12 11:16:33;;;;;;;10.15;4.53;;;22.00;99.90;;;;;;5059680;28;20743;-81
2021/03/12 11:19:00;;;;;;;14.85;4.68;;;22.00;99.90;;;;;;5064418;28;20532;-82
2021/03/12 11:21:28;;;;;;;13.57;4.80;;;21.90;99.90;;;;;;5074869;28;20403;-81
2021/03/12 11:23:55;;;;;;;13.85;4.57;;;21.80;99.90;;;;;;5073270;28;20400;-82
2021/03/12 11:26:24;;;;;;;13.82;4.30;;;21.80;99.90;;;;;;5063933;28;20420;-83
2021/03/12 11:28:51;;;;;;;12.33;4.40;;;21.80;99.90;;;;;;5069445;28;20397;-82
2021/03/12 11:31:19;;;;;;;13.30;4.57;;;21.80;99.90;;;;;;5063117;28;20397;-83
2021/03/12 11:33:46;;;;;;;13.03;4.67;;;21.70;99.90;;;;;;5070449;28;21001;-83
2021/03/12 11:36:13;;;;;;;14.15;4.78;;;21.70;99.90;;;;;;5064109;28;20486;-83
2021/03/12 11:38:40;;;;;;;18.23;4.80;;;21.70;99.90;;;;;;5063542;28;20421;-83
2021/03/12 11:41:07;;;;;;;13.23;4.50;;;21.60;99.90;;;;;;5067569;28;20390;-83
2021/03/12 11:43:34;;;;;;;10.95;4.60;;;21.60;99.90;;;;;;5070410;28;20392;-83
2021/03/12 11:46:01;;;;;;;11.43;4.45;;;21.60;99.90;;;;;;5074045;28;20411;-83
2021/03/12 11:48:28;;;;;;;12.55;3.97;;;21.70;99.90;;;;;;5091342;28;20403;-83
2021/03/12 11:50:57;;;;;;;11.32;4.05;;;21.60;99.90;;;;;;5075326;28;20890;-83
2021/03/12 11:53:24;;;;;;;11.52;3.95;;;21.60;99.90;;;;;;5081030;28;20456;-83
2021/03/12 11:55:51;;;;;;;12.88;4.03;;;21.60;99.90;;;;;;5072590;28;20472;-83
2021/03/12 11:58:18;;;;;;;12.10;4.07;;;21.60;99.90;;;;;;5070974;28;20407;-83
2021/03/12 12:00:46;;;;;;;13.13;4.05;;;21.60;99.90;;;;;;5069669;28;20434;-82
2021/03/12 12:03:13;;;;;;;11.77;3.67;;;21.70;99.90;;;;;;5070837;28;20406;-82
2021/03/12 12:05:40;;;;;;;11.33;3.97;;;21.70;99.90;;;;;;5070226;28;20412;-84
2021/03/12 12:08:07;;;;;;;12.37;3.67;;;21.70;99.90;;;;;;5070299;28;20431;-82
2021/03/12 12:10:34;;;;;;;12.33;3.50;;;21.60;99.90;;;;;;5070391;28;20838;-83
2021/03/12 12:13:01;;;;;;;10.95;3.83;;;21.60;99.90;;;;;;5068856;28;20390;-82
2021/03/12 12:15:30;;;;;;;11.32;3.63;;;21.50;99.90;;;;;;5069646;28;20397;-83
2021/03/12 12:18:05;;;;;;;13.17;3.53;;;21.50;99.90;;;;;;5067271;28;20878;-83
2021/03/12 12:20:32;;;;;;;14.07;3.95;;;21.50;99.90;;;;;;5071461;28;20457;-82
2021/03/12 12:23:00;;;;;;;12.50;3.50;;;21.50;99.90;;;;;;5071006;28;20745;-82
2021/03/12 12:25:28;;;;;;;10.95;3.75;;;21.50;99.90;;;;;;5070399;28;20512;-83
2021/03/12 12:27:55;;;;;;;8.60;3.33;;;21.50;99.90;;;;;;5067403;28;20390;-82
2021/03/12 12:30:22;;;;;;;12.75;4.00;;;21.50;99.90;;;;;;5069565;28;20511;-83
2021/03/12 12:32:49;;;;;;;11.43;3.55;;;21.50;99.90;;;;;;5068093;28;20975;-83
2021/03/12 12:35:16;;;;;;;12.17;3.60;;;21.40;99.90;;;;;;5068130;28;20393;-83
2021/03/12 12:37:43;;;;;;;11.88;3.35;;;21.40;99.90;;;;;;5069094;28;20805;-83
2021/03/12 12:40:12;;;;;;;10.48;3.47;;;21.40;99.90;;;;;;5068042;28;20742;-84
2021/03/12 12:42:39;;;;;;;10.50;3.58;;;21.40;99.90;;;;;;5070871;28;20868;-83
2021/03/12 12:45:07;;;;;;;11.57;3.55;;;21.30;99.90;;;;;;5070800;28;20394;-83
2021/03/12 12:47:34;;;;;;;14.00;3.75;;;21.30;99.90;;;;;;5071028;28;20867;-82
2021/03/12 12:50:01;;;;;;;13.68;3.83;;;21.20;99.90;;;;;;5070369;28;20860;-83
2021/03/12 12:52:28;;;;;;;11.93;3.53;;;21.10;99.90;;;;;;5070649;28;20393;-83
2021/03/12 12:54:55;;;;;;;10.40;3.78;;;21.10;99.90;;;;;;5070745;28;20394;-83
2021/03/12 12:57:22;;;;;;;10.25;3.67;;;21.00;99.90;;;;;;5070492;28;20535;-82
2021/03/12 12:59:50;;;;;;;10.33;3.33;;;20.90;99.90;;;;;;5069728;28;20468;-83
2021/03/12 13:02:18;;;;;;;10.02;3.60;;;20.80;99.90;;;;;;5070566;28;20412;-83
2021/03/12 13:04:45;;;;;;;12.23;3.83;;;20.70;99.90;;;;;;5070648;28;20390;-83